createdAt,value
2023-01-17T00:03:09.330Z,6.80
2023-01-17T00:07:31.437Z,4.53
2023-01-17T00:11:32.646Z,4.37
2023-01-17T00:15:33.879Z,5.30
2023-01-17T00:19:53.717Z,4.23
2023-01-17T00:24:13.394Z,3.57
2023-01-17T00:28:14.656Z,5.03
2023-01-17T00:32:15.730Z,5.50
2023-01-17T00:36:16.782Z,5.03
2023-01-17T00:40:18.042Z,4.50
2023-01-17T00:44:37.933Z,4.17
2023-01-17T00:48:57.701Z,3.73
2023-01-17T00:53:22.408Z,5.63
2023-01-17T00:57:42.069Z,4.70
2023-01-17T01:02:01.764Z,3.97
2023-01-17T01:06:25.057Z,4.90
2023-01-17T01:10:44.829Z,6.57
2023-01-17T01:15:04.632Z,5.57
2023-01-17T01:19:24.284Z,6.90
2023-01-17T01:23:44.027Z,10.37
2023-01-17T01:28:03.723Z,6.73
2023-01-17T01:32:23.142Z,4.07
2023-01-17T01:36:24.299Z,4.50
2023-01-17T01:40:25.447Z,5.40
2023-01-17T01:44:48.156Z,5.57
2023-01-17T01:48:56.123Z,5.00
2023-01-17T01:53:00.187Z,4.93
2023-01-17T01:57:04.496Z,3.83
2023-01-17T02:01:07.863Z,4.50
2023-01-17T02:05:11.630Z,5.77
2023-01-17T02:09:16.307Z,4.57
2023-01-17T02:13:19.678Z,3.80
2023-01-17T02:17:33.659Z,5.93
2023-01-17T02:21:47.443Z,5.00
2023-01-17T02:26:15.556Z,6.27
2023-01-17T02:30:32.511Z,5.97
2023-01-17T02:34:57.381Z,5.90
2023-01-17T02:39:08.503Z,5.50
2023-01-17T02:43:13.446Z,5.17
2023-01-17T02:47:23.855Z,9.77
2023-01-17T02:51:49.906Z,4.20
2023-01-17T02:56:01.070Z,4.57
2023-01-17T03:00:13.311Z,4.93
2023-01-17T03:04:27.368Z,5.73
2023-01-17T03:08:29.233Z,4.10
2023-01-17T03:12:32.409Z,6.43
2023-01-17T03:16:33.901Z,7.60
2023-01-17T03:20:35.033Z,4.83
2023-01-17T03:24:36.197Z,4.60
2023-01-17T03:28:37.378Z,4.90
2023-01-17T03:32:39.028Z,7.00
2023-01-17T03:36:40.188Z,5.20
2023-01-17T03:40:41.779Z,4.20
2023-01-17T03:44:43.068Z,5.13
2023-01-17T03:48:44.207Z,4.80
2023-01-17T03:52:45.372Z,7.00
2023-01-17T03:56:47.044Z,6.53
2023-01-17T04:00:48.255Z,4.83
2023-01-17T04:04:50.478Z,5.00
2023-01-17T04:08:52.357Z,5.03
2023-01-17T04:12:53.522Z,5.60
2023-01-17T04:16:55.570Z,9.20
2023-01-17T04:20:56.816Z,4.90
2023-01-17T04:24:58.879Z,6.70
2023-01-17T04:29:00.059Z,5.70
2023-01-17T04:33:01.327Z,4.33
2023-01-17T04:37:02.485Z,5.70
2023-01-17T04:41:04.364Z,4.03
2023-01-17T04:45:06.866Z,6.20
2023-01-17T04:49:08.003Z,5.57
2023-01-17T04:53:09.160Z,5.23
2023-01-17T04:57:10.308Z,6.10
2023-01-17T05:01:11.546Z,6.53
2023-01-17T05:05:12.820Z,6.70
2023-01-17T05:09:13.999Z,5.60
2023-01-17T05:13:15.168Z,6.60
2023-01-17T05:17:16.369Z,8.00
2023-01-17T05:21:17.725Z,5.70
2023-01-17T05:25:18.884Z,6.90
2023-01-17T05:29:20.854Z,6.60
2023-01-17T05:33:22.030Z,7.23
2023-01-17T05:37:23.505Z,7.33
2023-01-17T05:41:24.662Z,8.80
2023-01-17T05:45:28.025Z,6.13
2023-01-17T05:49:29.187Z,9.37
2023-01-17T05:53:30.348Z,9.10
2023-01-17T05:57:31.637Z,7.53
2023-01-17T06:01:32.802Z,7.13
2023-01-17T06:05:34.193Z,7.27
2023-01-17T06:09:35.325Z,8.53
2023-01-17T06:13:36.411Z,6.20
2023-01-17T06:17:38.168Z,6.20
2023-01-17T06:21:39.361Z,9.30
2023-01-17T06:25:43.244Z,5.70
2023-01-17T06:29:44.455Z,6.13
2023-01-17T06:33:45.599Z,6.70
2023-01-17T06:37:51.894Z,8.93
2023-01-17T06:41:53.162Z,7.17
2023-01-17T06:45:54.413Z,6.83
2023-01-17T06:49:55.540Z,8.57
2023-01-17T06:53:56.901Z,10.00
2023-01-17T06:58:01.966Z,8.10
2023-01-17T07:02:03.340Z,7.87
2023-01-17T07:06:04.932Z,7.57
2023-01-17T07:10:06.331Z,8.77
2023-01-17T07:14:13.041Z,9.43
2023-01-17T07:18:15.621Z,7.17
2023-01-17T07:22:18.676Z,6.93
2023-01-17T07:26:19.832Z,8.47
2023-01-17T07:30:21.466Z,7.87
2023-01-17T07:34:22.647Z,7.53
2023-01-17T07:38:23.889Z,8.80
2023-01-17T07:42:25.052Z,7.30
2023-01-17T07:46:26.613Z,7.20
2023-01-17T07:50:27.817Z,7.83
2023-01-17T07:54:28.982Z,6.43
2023-01-17T07:58:31.240Z,7.63
2023-01-17T08:02:32.533Z,8.17
2023-01-17T08:06:33.699Z,8.60
2023-01-17T08:10:35.703Z,9.90
2023-01-17T08:14:36.843Z,8.10
2023-01-17T08:18:38.631Z,9.93
2023-01-17T08:22:39.805Z,8.13
2023-01-17T08:26:41.050Z,12.90
2023-01-17T08:30:42.196Z,9.70
2023-01-17T08:34:43.364Z,8.20
2023-01-17T08:38:44.517Z,7.67
2023-01-17T08:42:57.691Z,8.03
2023-01-17T08:46:58.854Z,6.10
2023-01-17T08:51:01.844Z,7.77
2023-01-17T08:55:05.226Z,6.27
2023-01-17T08:59:06.307Z,8.90
2023-01-17T09:03:11.889Z,6.63
2023-01-17T09:07:14.136Z,7.70
2023-01-17T09:11:16.966Z,7.03
2023-01-17T09:15:19.702Z,5.90
2023-01-17T09:19:20.837Z,9.33
2023-01-17T09:23:22.535Z,12.80
2023-01-17T09:27:23.718Z,8.50
2023-01-17T09:31:26.303Z,5.53
2023-01-17T09:35:27.465Z,8.23
2023-01-17T09:39:28.651Z,5.87
2023-01-17T09:43:43.552Z,6.90
2023-01-17T09:47:48.433Z,14.20
2023-01-17T09:51:49.713Z,5.63
2023-01-17T09:55:57.801Z,6.03
2023-01-17T10:00:27.072Z,7.93
2023-01-17T10:04:34.676Z,4.97
2023-01-17T10:08:42.913Z,5.50
2023-01-17T10:12:51.035Z,5.70
2023-01-17T10:17:04.756Z,4.50
2023-01-17T10:21:27.633Z,5.20
2023-01-17T10:25:42.314Z,4.80
2023-01-17T10:29:47.206Z,5.20
2023-01-17T10:33:53.369Z,7.37
2023-01-17T10:37:56.427Z,6.70
2023-01-17T10:42:19.552Z,5.43
2023-01-17T10:46:39.838Z,4.50
2023-01-17T10:51:04.189Z,7.33
2023-01-17T10:55:29.790Z,4.60
2023-01-17T10:59:34.257Z,5.73
2023-01-17T11:03:35.627Z,4.63
2023-01-17T11:07:37.937Z,5.87
2023-01-17T11:11:49.711Z,6.07
2023-01-17T11:15:58.130Z,5.80
2023-01-17T11:20:08.954Z,5.77
2023-01-17T11:24:13.746Z,5.10
2023-01-17T11:28:29.476Z,5.80
2023-01-17T11:32:33.277Z,7.20
2023-01-17T11:36:34.414Z,6.23
2023-01-17T11:40:43.676Z,8.73
2023-01-17T11:44:44.818Z,5.20
2023-01-17T11:48:58.920Z,4.13
2023-01-17T11:53:19.780Z,6.23
2023-01-17T11:57:33.528Z,6.90
2023-01-17T12:01:44.271Z,5.63
2023-01-17T12:06:17.397Z,4.37
2023-01-17T12:10:31.358Z,5.80
2023-01-17T12:14:42.463Z,6.33
2023-01-17T12:18:49.045Z,4.70
2023-01-17T12:23:20.846Z,5.03
2023-01-17T12:27:54.897Z,5.40
2023-01-17T12:31:59.890Z,5.70
2023-01-17T12:36:04.367Z,6.60
2023-01-17T12:40:15.612Z,5.10
2023-01-17T12:44:20.061Z,5.53
2023-01-17T12:48:24.513Z,4.87
2023-01-17T12:52:35.176Z,4.70
2023-01-17T12:56:52.763Z,8.33
2023-01-17T13:01:10.053Z,5.97
2023-01-17T13:05:32.042Z,6.83
2023-01-17T13:09:45.739Z,4.67
2023-01-17T13:13:48.877Z,4.83
2023-01-17T13:17:53.608Z,4.30
2023-01-17T13:21:56.294Z,5.53
2023-01-17T13:25:59.572Z,9.23
2023-01-17T13:30:28.543Z,5.40
2023-01-17T13:34:42.948Z,4.67
2023-01-17T13:38:59.736Z,6.53
2023-01-17T13:43:03.724Z,7.73
2023-01-17T13:47:23.641Z,6.10
2023-01-17T13:51:28.015Z,6.17
2023-01-17T13:55:45.261Z,5.07
2023-01-17T13:59:46.408Z,4.20
2023-01-17T14:03:57.062Z,9.43
2023-01-17T14:08:04.473Z,12.70
2023-01-17T14:12:15.117Z,8.13
2023-01-17T14:16:28.280Z,10.70
2023-01-17T14:20:39.320Z,6.77
2023-01-17T14:25:00.947Z,5.60
2023-01-17T14:29:39.948Z,8.37
2023-01-17T14:33:42.023Z,8.50
2023-01-17T14:37:47.048Z,7.13
2023-01-17T14:41:48.408Z,10.77
2023-01-17T14:45:53.410Z,9.10
2023-01-17T14:50:19.488Z,6.03
2023-01-17T14:54:21.694Z,9.10
2023-01-17T14:58:26.357Z,6.70
2023-01-17T15:02:27.747Z,5.80
2023-01-17T15:06:38.299Z,7.03
2023-01-17T15:11:01.457Z,10.40
2023-01-17T15:15:02.893Z,8.70
2023-01-17T15:19:12.874Z,10.43
2023-01-17T15:23:19.836Z,10.70
2023-01-17T15:27:21.280Z,12.57
2023-01-17T15:31:25.462Z,7.03
2023-01-17T15:35:27.628Z,7.10
2023-01-17T15:39:38.386Z,8.00
2023-01-17T15:43:41.050Z,8.77
2023-01-17T15:47:42.312Z,9.50
2023-01-17T15:52:05.296Z,9.83
2023-01-17T15:56:22.115Z,10.73
2023-01-17T16:00:38.462Z,14.60
2023-01-17T16:04:41.620Z,16.80
2023-01-17T16:08:46.585Z,10.57
2023-01-17T16:12:53.028Z,12.63
2023-01-17T16:16:54.731Z,13.13
2023-01-17T16:21:01.988Z,11.07
2023-01-17T16:25:07.001Z,8.90
2023-01-17T16:29:09.481Z,7.70
2023-01-17T16:33:14.852Z,9.55
2023-01-17T16:37:16.599Z,7.80
2023-01-17T16:41:18.887Z,7.77
2023-01-17T16:45:20.339Z,7.87
2023-01-17T16:49:21.500Z,9.40
2023-01-17T16:53:25.301Z,10.90
2023-01-17T16:57:26.549Z,11.20
2023-01-17T17:01:27.817Z,14.40
2023-01-17T17:05:29.909Z,13.93
2023-01-17T17:09:31.623Z,11.87
2023-01-17T17:13:35.464Z,23.03
2023-01-17T17:17:38.662Z,20.30
2023-01-17T17:21:40.045Z,21.87
2023-01-17T17:25:41.310Z,23.00
2023-01-17T17:29:42.471Z,20.77
2023-01-17T17:33:43.647Z,17.33
2023-01-17T17:37:44.811Z,17.73
2023-01-17T17:41:46.292Z,31.13
2023-01-17T17:45:48.184Z,24.17
2023-01-17T17:49:49.614Z,17.27
2023-01-17T17:53:51.991Z,14.97
2023-01-17T17:57:53.807Z,11.27
2023-01-17T18:01:55.163Z,13.77
2023-01-17T18:06:09.833Z,10.87
2023-01-17T18:10:11.051Z,12.23
2023-01-17T18:14:14.138Z,14.03
2023-01-17T18:18:15.357Z,16.93
2023-01-17T18:22:16.523Z,15.30
2023-01-17T18:26:23.848Z,16.97
2023-01-17T18:30:25.133Z,10.47
2023-01-17T18:34:28.548Z,10.67
2023-01-17T18:38:31.757Z,10.50
2023-01-17T18:42:33.143Z,14.70
2023-01-17T18:46:35.020Z,10.33
2023-01-17T18:50:36.187Z,10.13
2023-01-17T18:54:38.484Z,13.83
2023-01-17T18:58:42.668Z,16.83
2023-01-17T19:02:48.206Z,23.53
2023-01-17T19:06:49.455Z,23.33
2023-01-17T19:10:50.606Z,28.60
2023-01-17T19:14:51.914Z,25.77
2023-01-17T19:18:54.700Z,18.33
2023-01-17T19:22:56.170Z,31.30
2023-01-17T19:26:57.342Z,37.63
2023-01-17T19:31:04.551Z,32.47
2023-01-17T19:35:08.106Z,18.57
2023-01-17T19:39:10.264Z,19.50
2023-01-17T19:43:11.680Z,14.77
2023-01-17T19:47:12.857Z,16.87
2023-01-17T19:51:15.292Z,14.40
2023-01-17T19:55:17.047Z,9.87
2023-01-17T19:59:19.365Z,11.43
2023-01-17T20:03:21.130Z,10.60
2023-01-17T20:07:23.111Z,10.80
2023-01-17T20:11:25.639Z,14.93
2023-01-17T20:15:27.686Z,13.80
2023-01-17T20:19:29.325Z,16.03
2023-01-17T20:23:35.351Z,15.70
2023-01-17T20:27:38.410Z,12.97
2023-01-17T20:32:00.672Z,15.40
2023-01-17T20:36:20.942Z,15.43
2023-01-17T20:40:54.946Z,15.90
2023-01-17T20:45:02.925Z,14.40
2023-01-17T20:49:15.464Z,16.90
2023-01-17T20:53:27.996Z,11.33
2023-01-17T20:57:42.014Z,10.90
2023-01-17T21:01:54.016Z,14.87
2023-01-17T21:06:28.879Z,11.13
2023-01-17T21:10:31.518Z,12.03
2023-01-17T21:14:37.321Z,12.03
2023-01-17T21:18:51.997Z,10.73
2023-01-17T21:23:04.430Z,10.47
2023-01-17T21:27:19.192Z,9.30
2023-01-17T21:31:24.599Z,12.67
2023-01-17T21:35:29.713Z,10.10
2023-01-17T21:39:31.271Z,9.00
2023-01-17T21:43:33.699Z,10.07
2023-01-17T21:47:36.040Z,8.10
2023-01-17T21:51:53.959Z,9.90
2023-01-17T21:56:18.901Z,10.23
2023-01-17T22:00:20.405Z,12.00
2023-01-17T22:04:21.761Z,8.17
2023-01-17T22:08:23.412Z,14.50
2023-01-17T22:12:25.176Z,9.33
2023-01-17T22:16:26.840Z,8.63
2023-01-17T22:20:29.347Z,8.87
2023-01-17T22:24:31.528Z,11.40
2023-01-17T22:28:35.878Z,8.47
2023-01-17T22:32:58.096Z,11.83
2023-01-17T22:41:42.141Z,8.93
2023-01-17T22:50:25.094Z,11.40
2023-01-17T22:54:35.435Z,9.53
2023-01-17T22:58:50.956Z,10.50
2023-01-17T23:02:56.715Z,13.10
2023-01-17T23:07:17.014Z,12.70
2023-01-17T23:11:43.064Z,11.73
2023-01-17T23:16:02.790Z,9.10
2023-01-17T23:20:04.782Z,10.30
2023-01-17T23:24:05.985Z,9.03
2023-01-17T23:28:14.898Z,11.13
2023-01-17T23:32:16.196Z,8.97
2023-01-17T23:36:17.364Z,12.50
2023-01-17T23:40:18.637Z,13.43
2023-01-17T23:44:21.674Z,11.70
2023-01-17T23:48:25.486Z,8.63
2023-01-17T23:52:26.636Z,9.30
2023-01-17T23:56:27.832Z,9.10
